sensor_id;sensor_type;location;lat;lon;timestamp;pressure;altitude;pressure_sealevel;temperature;humidity
54882;BME280;40775;51.448;4.742;2023-05-10T00:02:24;100845.72;;;14.39;100.00
54882;BME280;40775;51.448;4.742;2023-05-10T00:04:52;100844.84;;;14.40;100.00
54882;BME280;40775;51.448;4.742;2023-05-10T00:07:20;100851.88;;;14.41;100.00
54882;BME280;40775;51.448;4.742;2023-05-10T00:09:47;100850.19;;;14.46;100.00
54882;BME280;40775;51.448;4.742;2023-05-10T00:12:14;100851.06;;;14.47;100.00
54882;BME280;40775;51.448;4.742;2023-05-10T00:14:42;100855.47;;;14.49;100.00
54882;BME280;40775;51.448;4.742;2023-05-10T00:17:09;100844.03;;;14.47;100.00
54882;BME280;40775;51.448;4.742;2023-05-10T00:19:36;100848.44;;;14.50;100.00
54882;BME280;40775;51.448;4.742;2023-05-10T00:22:04;100844.91;;;14.51;100.00
54882;BME280;40775;51.448;4.742;2023-05-10T00:24:31;100847.53;;;14.46;100.00
54882;BME280;40775;51.448;4.742;2023-05-10T00:26:58;100839.63;;;14.48;100.00
54882;BME280;40775;51.448;4.742;2023-05-10T00:29:26;100843.13;;;14.47;100.00
54882;BME280;40775;51.448;4.742;2023-05-10T00:31:55;100830.75;;;14.41;100.00
54882;BME280;40775;51.448;4.742;2023-05-10T00:34:23;100830.75;;;14.38;100.00
54882;BME280;40775;51.448;4.742;2023-05-10T00:36:51;100829.84;;;14.29;100.00
54882;BME280;40775;51.448;4.742;2023-05-10T00:39:19;100832.47;;;14.32;100.00
54882;BME280;40775;51.448;4.742;2023-05-10T00:41:46;100825.44;;;14.29;100.00
54882;BME280;40775;51.448;4.742;2023-05-10T00:44:14;100827.13;;;14.22;100.00
54882;BME280;40775;51.448;4.742;2023-05-10T00:46:42;100831.53;;;14.22;100.00
54882;BME280;40775;51.448;4.742;2023-05-10T00:49:09;100821.78;;;14.07;100.00
54882;BME280;40775;51.448;4.742;2023-05-10T00:51:37;100817.41;;;14.08;100.00
54882;BME280;40775;51.448;4.742;2023-05-10T00:54:04;100825.31;;;14.11;100.00
54882;BME280;40775;51.448;4.742;2023-05-10T00:56:32;100835.00;;;14.12;100.00
54882;BME280;40775;51.448;4.742;2023-05-10T00:59:00;100827.09;;;14.13;100.00
54882;BME280;40775;51.448;4.742;2023-05-10T01:01:28;100823.59;;;14.16;100.00
54882;BME280;40775;51.448;4.742;2023-05-10T01:03:56;100830.63;;;14.15;100.00
54882;BME280;40775;51.448;4.742;2023-05-10T01:06:24;100828.88;;;14.20;100.00
54882;BME280;40775;51.448;4.742;2023-05-10T01:08:51;100830.66;;;14.21;100.00
54882;BME280;40775;51.448;4.742;2023-05-10T01:11:19;100836.81;;;14.22;100.00
54882;BME280;40775;51.448;4.742;2023-05-10T01:13:50;100832.41;;;14.22;100.00
54882;BME280;40775;51.448;4.742;2023-05-10T01:16:20;100829.78;;;14.24;100.00
54882;BME280;40775;51.448;4.742;2023-05-10T01:18:47;100836.88;;;14.25;100.00
54882;BME280;40775;51.448;4.742;2023-05-10T01:21:38;100829.81;;;14.26;100.00
54882;BME280;40775;51.448;4.742;2023-05-10T01:30:01;100844.78;;;14.27;100.00
54882;BME280;40775;51.448;4.742;2023-05-10T01:38:27;100847.44;;;14.25;100.00
54882;BME280;40775;51.448;4.742;2023-05-10T01:41:18;100852.72;;;14.25;100.00
54882;BME280;40775;51.448;4.742;2023-05-10T01:46:38;100859.75;;;14.26;100.00
54882;BME280;40775;51.448;4.742;2023-05-10T01:49:19;100863.28;;;14.27;100.00
54882;BME280;40775;51.448;4.742;2023-05-10T01:51:53;100861.50;;;14.27;100.00
54882;BME280;40775;51.448;4.742;2023-05-10T01:54:24;100866.78;;;14.27;100.00
54882;BME280;40775;51.448;4.742;2023-05-10T01:56:56;100858.00;;;14.25;100.00
54882;BME280;40775;51.448;4.742;2023-05-10T01:59:28;100859.75;;;14.28;100.00
54882;BME280;40775;51.448;4.742;2023-05-10T02:01:58;100863.28;;;14.25;100.00
54882;BME280;40775;51.448;4.742;2023-05-10T02:04:27;100869.38;;;14.22;100.00
54882;BME280;40775;51.448;4.742;2023-05-10T02:06:55;100864.09;;;14.24;100.00
54882;BME280;40775;51.448;4.742;2023-05-10T02:09:25;100863.22;;;14.23;100.00
54882;BME280;40775;51.448;4.742;2023-05-10T02:11:55;100863.22;;;14.23;100.00
54882;BME280;40775;51.448;4.742;2023-05-10T02:14:25;100867.66;;;14.25;100.00
54882;BME280;40775;51.448;4.742;2023-05-10T02:16:54;100872.91;;;14.23;100.00
54882;BME280;40775;51.448;4.742;2023-05-10T02:19:24;100870.25;;;14.23;100.00
54882;BME280;40775;51.448;4.742;2023-05-10T02:21:52;100871.16;;;14.22;100.00
54882;BME280;40775;51.448;4.742;2023-05-10T02:24:22;100880.81;;;14.23;100.00
54882;BME280;40775;51.448;4.742;2023-05-10T02:26:53;100881.72;;;14.23;100.00
54882;BME280;40775;51.448;4.742;2023-05-10T02:29:25;100893.16;;;14.24;100.00
54882;BME280;40775;51.448;4.742;2023-05-10T02:31:54;100889.63;;;14.22;100.00
54882;BME280;40775;51.448;4.742;2023-05-10T02:34:25;100892.25;;;14.20;100.00
54882;BME280;40775;51.448;4.742;2023-05-10T02:36:53;100885.22;;;14.19;100.00
54882;BME280;40775;51.448;4.742;2023-05-10T02:39:22;100894.88;;;14.19;100.00
54882;BME280;40775;51.448;4.742;2023-05-10T02:41:52;100898.38;;;14.15;100.00
54882;BME280;40775;51.448;4.742;2023-05-10T02:44:21;100899.28;;;14.17;100.00
54882;BME280;40775;51.448;4.742;2023-05-10T02:46:49;100898.38;;;14.12;100.00
54882;BME280;40775;51.448;4.742;2023-05-10T02:49:17;100901.91;;;14.12;100.00
54882;BME280;40775;51.448;4.742;2023-05-10T02:51:54;100901.00;;;14.10;100.00
54882;BME280;40775;51.448;4.742;2023-05-10T02:54:30;100901.88;;;14.08;100.00
54882;BME280;40775;51.448;4.742;2023-05-10T02:57:00;100910.66;;;14.05;100.00
54882;BME280;40775;51.448;4.742;2023-05-10T02:59:30;100913.28;;;14.05;100.00
54882;BME280;40775;51.448;4.742;2023-05-10T03:01:58;100910.63;;;14.01;100.00
54882;BME280;40775;51.448;4.742;2023-05-10T03:04:27;100897.41;;;13.98;100.00
54882;BME280;40775;51.448;4.742;2023-05-10T03:06:54;100908.81;;;13.97;100.00
54882;BME280;40775;51.448;4.742;2023-05-10T03:09:22;100907.03;;;13.96;100.00
54882;BME280;40775;51.448;4.742;2023-05-10T03:12:11;100903.53;;;13.95;100.00
54882;BME280;40775;51.448;4.742;2023-05-10T03:14:57;100902.59;;;13.90;100.00
54882;BME280;40775;51.448;4.742;2023-05-10T03:17:41;100902.59;;;13.88;100.00
54882;BME280;40775;51.448;4.742;2023-05-10T03:20:26;100907.88;;;13.88;100.00
54882;BME280;40775;51.448;4.742;2023-05-10T03:25:48;100915.78;;;13.85;100.00
54882;BME280;40775;51.448;4.742;2023-05-10T03:28:18;100906.97;;;13.83;100.00
54882;BME280;40775;51.448;4.742;2023-05-10T03:30:47;100913.13;;;13.84;100.00
54882;BME280;40775;51.448;4.742;2023-05-10T03:33:16;100911.34;;;13.81;100.00
54882;BME280;40775;51.448;4.742;2023-05-10T03:35:43;100920.19;;;13.86;100.00
54882;BME280;40775;51.448;4.742;2023-05-10T03:38:13;100924.56;;;13.84;100.00
54882;BME280;40775;51.448;4.742;2023-05-10T03:40:40;100914.88;;;13.82;100.00
54882;BME280;40775;51.448;4.742;2023-05-10T03:43:08;100921.91;;;13.81;100.00
54882;BME280;40775;51.448;4.742;2023-05-10T03:45:35;100922.78;;;13.82;100.00
54882;BME280;40775;51.448;4.742;2023-05-10T03:48:03;100925.41;;;13.82;100.00
54882;BME280;40775;51.448;4.742;2023-05-10T03:50:31;100927.19;;;13.81;100.00
54882;BME280;40775;51.448;4.742;2023-05-10T03:52:58;100923.69;;;13.84;100.00
54882;BME280;40775;51.448;4.742;2023-05-10T03:55:26;100926.28;;;13.81;100.00
54882;BME280;40775;51.448;4.742;2023-05-10T03:57:53;100928.06;;;13.80;100.00
54882;BME280;40775;51.448;4.742;2023-05-10T04:00:24;100925.41;;;13.82;100.00
54882;BME280;40775;51.448;4.742;2023-05-10T04:02:52;100928.06;;;13.80;100.00
54882;BME280;40775;51.448;4.742;2023-05-10T04:05:19;100923.66;;;13.79;100.00
54882;BME280;40775;51.448;4.742;2023-05-10T04:07:47;100931.56;;;13.79;100.00
54882;BME280;40775;51.448;4.742;2023-05-10T04:10:16;100929.78;;;13.78;100.00
54882;BME280;40775;51.448;4.742;2023-05-10T04:12:44;100932.44;;;13.80;100.00
54882;BME280;40775;51.448;4.742;2023-05-10T04:15:11;100934.19;;;13.79;100.00
54882;BME280;40775;51.448;4.742;2023-05-10T04:17:39;100922.78;;;13.80;100.00
54882;BME280;40775;51.448;4.742;2023-05-10T04:20:07;100928.03;;;13.79;100.00
54882;BME280;40775;51.448;4.742;2023-05-10T04:22:35;100921.00;;;13.78;100.00
54882;BME280;40775;51.448;4.742;2023-05-10T04:25:04;100921.00;;;13.79;100.00
54882;BME280;40775;51.448;4.742;2023-05-10T04:27:32;100924.50;;;13.78;100.00
54882;BME280;40775;51.448;4.742;2023-05-10T04:30:00;100919.25;;;13.81;100.00
54882;BME280;40775;51.448;4.742;2023-05-10T04:32:27;100931.53;;;13.76;100.00
54882;BME280;40775;51.448;4.742;2023-05-10T04:34:55;100923.63;;;13.78;100.00
54882;BME280;40775;51.448;4.742;2023-05-10T04:37:22;100931.56;;;13.78;100.00
54882;BME280;40775;51.448;4.742;2023-05-10T04:39:50;100926.28;;;13.78;100.00
54882;BME280;40775;51.448;4.742;2023-05-10T04:42:17;100928.91;;;13.76;100.00
54882;BME280;40775;51.448;4.742;2023-05-10T04:44:45;100932.41;;;13.77;100.00
54882;BME280;40775;51.448;4.742;2023-05-10T04:47:12;100924.50;;;13.77;100.00
54882;BME280;40775;51.448;4.742;2023-05-10T04:49:40;100929.78;;;13.77;100.00
54882;BME280;40775;51.448;4.742;2023-05-10T04:52:07;100928.91;;;13.78;100.00
54882;BME280;40775;51.448;4.742;2023-05-10T04:54:35;100936.84;;;13.79;100.00
54882;BME280;40775;51.448;4.742;2023-05-10T04:57:02;100937.72;;;13.80;100.00
54882;BME280;40775;51.448;4.742;2023-05-10T04:59:30;100944.75;;;13.81;100.00
54882;BME280;40775;51.448;4.742;2023-05-10T05:01:57;100935.97;;;13.82;100.00
54882;BME280;40775;51.448;4.742;2023-05-10T05:04:24;100943.03;;;13.83;100.00
54882;BME280;40775;51.448;4.742;2023-05-10T05:06:52;100948.31;;;13.86;100.00
54882;BME280;40775;51.448;4.742;2023-05-10T05:09:20;100946.53;;;13.83;100.00
54882;BME280;40775;51.448;4.742;2023-05-10T05:11:47;100950.06;;;13.85;100.00
54882;BME280;40775;51.448;4.742;2023-05-10T05:14:15;100955.38;;;13.87;100.00
54882;BME280;40775;51.448;4.742;2023-05-10T05:16:42;100948.34;;;13.87;100.00
54882;BME280;40775;51.448;4.742;2023-05-10T05:19:10;100957.13;;;13.88;100.00
54882;BME280;40775;51.448;4.742;2023-05-10T05:21:37;100964.16;;;13.87;100.00
54882;BME280;40775;51.448;4.742;2023-05-10T05:24:05;100975.56;;;13.83;100.00
54882;BME280;40775;51.448;4.742;2023-05-10T05:26:32;100972.06;;;13.83;100.00
54882;BME280;40775;51.448;4.742;2023-05-10T05:29:00;100980.88;;;13.86;100.00
54882;BME280;40775;51.448;4.742;2023-05-10T05:31:27;100983.53;;;13.89;100.00
54882;BME280;40775;51.448;4.742;2023-05-10T05:33:55;100988.81;;;13.91;100.00
54882;BME280;40775;51.448;4.742;2023-05-10T05:36:22;100987.94;;;13.92;100.00
54882;BME280;40775;51.448;4.742;2023-05-10T05:38:50;100993.22;;;13.89;100.00
54882;BME280;40775;51.448;4.742;2023-05-10T05:41:17;100993.22;;;13.89;100.00
54882;BME280;40775;51.448;4.742;2023-05-10T05:43:45;100997.63;;;13.91;100.00
54882;BME280;40775;51.448;4.742;2023-05-10T05:46:12;101011.56;;;14.83;100.00
54882;BME280;40775;51.448;4.742;2023-05-10T05:48:39;101018.16;;;15.93;100.00
54882;BME280;40775;51.448;4.742;2023-05-10T05:51:07;101004.88;;;16.68;100.00
54882;BME280;40775;51.448;4.742;2023-05-10T05:53:35;100999.47;;;17.08;100.00
54882;BME280;40775;51.448;4.742;2023-05-10T05:56:03;100995.72;;;17.50;100.00
54882;BME280;40775;51.448;4.742;2023-05-10T05:58:30;100977.16;;;17.48;100.00
54882;BME280;40775;51.448;4.742;2023-05-10T06:00:58;100984.03;;;17.84;100.00
54882;BME280;40775;51.448;4.742;2023-05-10T06:03:25;100967.16;;;17.93;100.00
54882;BME280;40775;51.448;4.742;2023-05-10T06:05:53;100975.88;;;18.09;100.00
54882;BME280;40775;51.448;4.742;2023-05-10T06:08:20;100974.03;;;18.18;100.00
54882;BME280;40775;51.448;4.742;2023-05-10T06:10:48;100964.28;;;18.19;100.00
54882;BME280;40775;51.448;4.742;2023-05-10T06:13:15;100973.09;;;18.22;100.00
54882;BME280;40775;51.448;4.742;2023-05-10T06:15:42;100968.59;;;18.31;100.00
54882;BME280;40775;51.448;4.742;2023-05-10T06:18:10;100981.28;;;17.98;100.00
54882;BME280;40775;51.448;4.742;2023-05-10T06:20:37;100966.16;;;18.03;100.00
54882;BME280;40775;51.448;4.742;2023-05-10T06:23:05;100967.97;;;18.01;100.00
54882;BME280;40775;51.448;4.742;2023-05-10T06:25:32;100967.13;;;17.96;100.00
54882;BME280;40775;51.448;4.742;2023-05-10T06:27:59;100971.47;;;18.06;100.00
54882;BME280;40775;51.448;4.742;2023-05-10T06:30:27;100971.34;;;18.21;100.00
54882;BME280;40775;51.448;4.742;2023-05-10T06:32:56;100972.09;;;18.36;100.00
54882;BME280;40775;51.448;4.742;2023-05-10T06:35:24;100970.44;;;18.22;100.00
54882;BME280;40775;51.448;4.742;2023-05-10T06:37:52;100970.56;;;18.10;100.00
54882;BME280;40775;51.448;4.742;2023-05-10T06:40:19;100969.66;;;18.11;100.00
54882;BME280;40775;51.448;4.742;2023-05-10T06:42:47;100973.22;;;18.07;100.00
54882;BME280;40775;51.448;4.742;2023-05-10T06:45:15;100969.56;;;18.20;100.00
54882;BME280;40775;51.448;4.742;2023-05-10T06:47:43;100982.63;;;18.45;100.00
54882;BME280;40775;51.448;4.742;2023-05-10T06:50:11;100974.78;;;18.31;100.00
54882;BME280;40775;51.448;4.742;2023-05-10T06:52:39;100983.78;;;18.18;100.00
54882;BME280;40775;51.448;4.742;2023-05-10T06:55:07;100983.06;;;17.96;100.00
54882;BME280;40775;51.448;4.742;2023-05-10T06:57:35;100987.63;;;17.76;100.00
54882;BME280;40775;51.448;4.742;2023-05-10T07:00:03;100988.72;;;17.37;100.00
54882;BME280;40775;51.448;4.742;2023-05-10T07:02:32;100995.75;;;17.44;100.00
54882;BME280;40775;51.448;4.742;2023-05-10T07:04:59;100983.19;;;17.82;100.00
54882;BME280;40775;51.448;4.742;2023-05-10T07:07:29;100997.19;;;18.01;100.00
54882;BME280;40775;51.448;4.742;2023-05-10T07:09:57;100989.06;;;18.19;100.00
54882;BME280;40775;51.448;4.742;2023-05-10T07:12:25;100994.44;;;18.13;100.00
54882;BME280;40775;51.448;4.742;2023-05-10T07:14:53;100991.63;;;18.29;100.00
54882;BME280;40775;51.448;4.742;2023-05-10T07:17:20;100998.69;;;18.33;100.00
54882;BME280;40775;51.448;4.742;2023-05-10T07:19:48;101003.16;;;18.28;100.00
54882;BME280;40775;51.448;4.742;2023-05-10T07:22:15;101003.16;;;18.29;100.00
54882;BME280;40775;51.448;4.742;2023-05-10T07:24:43;101006.56;;;18.45;100.00
54882;BME280;40775;51.448;4.742;2023-05-10T07:27:11;101006.47;;;18.52;100.00
54882;BME280;40775;51.448;4.742;2023-05-10T07:29:39;101000.53;;;18.26;100.00
54882;BME280;40775;51.448;4.742;2023-05-10T07:32:07;100999.59;;;18.30;100.00
54882;BME280;40775;51.448;4.742;2023-05-10T07:34:35;100999.50;;;18.42;100.00
54882;BME280;40775;51.448;4.742;2023-05-10T07:37:02;101002.13;;;18.47;100.00
54882;BME280;40775;51.448;4.742;2023-05-10T07:39:29;101002.13;;;18.47;100.00
54882;BME280;40775;51.448;4.742;2023-05-10T07:41:57;100998.50;;;18.52;100.00
54882;BME280;40775;51.448;4.742;2023-05-10T07:44:24;101005.53;;;18.66;100.00
54882;BME280;40775;51.448;4.742;2023-05-10T07:46:52;101014.31;;;18.72;100.00
54882;BME280;40775;51.448;4.742;2023-05-10T07:49:19;101003.56;;;18.81;100.00
54882;BME280;40775;51.448;4.742;2023-05-10T07:51:47;101007.97;;;18.82;100.00
54882;BME280;40775;51.448;4.742;2023-05-10T07:54:14;101006.19;;;18.84;100.00
54882;BME280;40775;51.448;4.742;2023-05-10T07:56:42;101013.25;;;18.86;100.00
54882;BME280;40775;51.448;4.742;2023-05-10T07:59:16;101008.91;;;18.80;100.00
54882;BME280;40775;51.448;4.742;2023-05-10T08:01:44;101014.16;;;18.84;100.00
54882;BME280;40775;51.448;4.742;2023-05-10T08:04:12;101010.56;;;18.89;100.00
54882;BME280;40775;51.448;4.742;2023-05-10T08:06:40;101019.44;;;18.91;100.00
54882;BME280;40775;51.448;4.742;2023-05-10T08:09:09;101012.31;;;18.90;100.00
54882;BME280;40775;51.448;4.742;2023-05-10T08:11:36;101023.84;;;18.93;100.00
54882;BME280;40775;51.448;4.742;2023-05-10T08:14:04;101023.84;;;18.93;100.00
54882;BME280;40775;51.448;4.742;2023-05-10T08:16:31;101025.63;;;18.91;100.00
54882;BME280;40775;51.448;4.742;2023-05-10T08:18:59;101028.25;;;18.94;100.00
54882;BME280;40775;51.448;4.742;2023-05-10T08:21:27;101030.94;;;18.93;100.00
54882;BME280;40775;51.448;4.742;2023-05-10T08:23:54;101037.16;;;18.93;100.00
54882;BME280;40775;51.448;4.742;2023-05-10T08:26:21;101045.09;;;18.96;100.00
54882;BME280;40775;51.448;4.742;2023-05-10T08:28:49;101039.78;;;18.96;100.00
54882;BME280;40775;51.448;4.742;2023-05-10T08:31:16;101052.16;;;18.97;100.00
54882;BME280;40775;51.448;4.742;2023-05-10T08:33:45;101040.63;;;18.98;100.00
54882;BME280;40775;51.448;4.742;2023-05-10T08:36:12;101042.41;;;18.98;100.00
54882;BME280;40775;51.448;4.742;2023-05-10T08:38:41;101038.84;;;18.99;100.00
54882;BME280;40775;51.448;4.742;2023-05-10T08:41:08;101041.50;;;18.99;100.00
54882;BME280;40775;51.448;4.742;2023-05-10T08:43:37;101047.69;;;19.01;100.00
54882;BME280;40775;51.448;4.742;2023-05-10T08:46:05;101052.13;;;19.02;100.00
54882;BME280;40775;51.448;4.742;2023-05-10T08:48:35;101056.53;;;19.03;100.00
54882;BME280;40775;51.448;4.742;2023-05-10T08:51:03;101053.00;;;19.02;100.00
54882;BME280;40775;51.448;4.742;2023-05-10T08:53:32;101057.44;;;19.00;100.00
54882;BME280;40775;51.448;4.742;2023-05-10T08:56:02;101048.56;;;19.01;100.00
54882;BME280;40775;51.448;4.742;2023-05-10T08:58:29;101049.44;;;19.02;100.00
54882;BME280;40775;51.448;4.742;2023-05-10T09:00:59;101054.78;;;19.02;100.00
54882;BME280;40775;51.448;4.742;2023-05-10T09:03:26;101059.19;;;19.04;100.00
54882;BME280;40775;51.448;4.742;2023-05-10T09:05:54;101059.19;;;19.04;100.00
54882;BME280;40775;51.448;4.742;2023-05-10T09:08:24;101062.72;;;19.05;100.00
54882;BME280;40775;51.448;4.742;2023-05-10T09:10:55;101066.25;;;19.05;100.00
54882;BME280;40775;51.448;4.742;2023-05-10T09:13:24;101068.03;;;19.05;100.00
54882;BME280;40775;51.448;4.742;2023-05-10T09:15:52;101066.28;;;19.04;100.00
54882;BME280;40775;51.448;4.742;2023-05-10T09:18:20;101071.63;;;19.02;100.00
54882;BME280;40775;51.448;4.742;2023-05-10T09:20:48;101066.28;;;19.04;100.00
54882;BME280;40775;51.448;4.742;2023-05-10T09:23:15;101069.81;;;19.04;100.00
54882;BME280;40775;51.448;4.742;2023-05-10T09:25:42;101067.16;;;19.06;100.00
54882;BME280;40775;51.448;4.742;2023-05-10T09:28:10;101083.97;;;19.08;100.00
54882;BME280;40775;51.448;4.742;2023-05-10T09:30:38;101071.59;;;19.05;100.00
54882;BME280;40775;51.448;4.742;2023-05-10T09:33:06;101071.53;;;19.08;100.00
54882;BME280;40775;51.448;4.742;2023-05-10T09:35:34;101075.09;;;19.07;100.00
54882;BME280;40775;51.448;4.742;2023-05-10T09:38:04;101076.88;;;19.08;100.00
54882;BME280;40775;51.448;4.742;2023-05-10T09:40:32;101082.03;;;19.25;100.00
54882;BME280;40775;51.448;4.742;2023-05-10T09:43:00;101091.88;;;19.19;100.00
54882;BME280;40775;51.448;4.742;2023-05-10T09:45:32;101085.66;;;19.15;100.00
54882;BME280;40775;51.448;4.742;2023-05-10T09:48:04;101087.44;;;19.14;100.00
54882;BME280;40775;51.448;4.742;2023-05-10T09:50:32;101091.91;;;19.12;100.00
54882;BME280;40775;51.448;4.742;2023-05-10T09:53:03;101094.56;;;19.12;100.00
54882;BME280;40775;51.448;4.742;2023-05-10T09:55:42;101079.47;;;19.13;100.00
54882;BME280;40775;51.448;4.742;2023-05-10T09:58:12;101091.00;;;19.13;100.00
54882;BME280;40775;51.448;4.742;2023-05-10T10:00:43;101092.75;;;19.19;100.00
54882;BME280;40775;51.448;4.742;2023-05-10T10:03:15;101090.91;;;19.23;100.00
54882;BME280;40775;51.448;4.742;2023-05-10T10:05:44;101092.72;;;19.22;100.00
54882;BME280;40775;51.448;4.742;2023-05-10T10:08:13;101097.16;;;19.22;100.00
54882;BME280;40775;51.448;4.742;2023-05-10T10:10:41;101100.31;;;19.56;100.00
54882;BME280;40775;51.448;4.742;2023-05-10T10:13:09;101077.16;;;19.61;100.00
54882;BME280;40775;51.448;4.742;2023-05-10T10:15:37;101068.47;;;19.43;100.00
54882;BME280;40775;51.448;4.742;2023-05-10T10:18:05;101077.44;;;19.36;100.00
54882;BME280;40775;51.448;4.742;2023-05-10T10:20:35;101078.41;;;19.31;100.00
54882;BME280;40775;51.448;4.742;2023-05-10T10:23:04;101081.09;;;19.28;100.00
54882;BME280;40775;51.448;4.742;2023-05-10T10:25:31;101085.47;;;19.32;100.00
54882;BME280;40775;51.448;4.742;2023-05-10T10:28:27;101080.88;;;19.44;100.00
54882;BME280;40775;51.448;4.742;2023-05-10T10:30:56;101091.38;;;19.60;100.00
54882;BME280;40775;51.448;4.742;2023-05-10T10:36:02;101086.28;;;19.38;100.00
54882;BME280;40775;51.448;4.742;2023-05-10T10:38:56;101091.69;;;19.32;100.00
54882;BME280;40775;51.448;4.742;2023-05-10T10:41:59;101087.31;;;19.28;100.00
54882;BME280;40775;51.448;4.742;2023-05-10T10:47:02;101090.84;;;19.29;100.00
54882;BME280;40775;51.448;4.742;2023-05-10T10:49:37;101091.72;;;19.31;100.00
54882;BME280;40775;51.448;4.742;2023-05-10T10:54:53;101088.13;;;19.33;100.00
54882;BME280;40775;51.448;4.742;2023-05-10T10:57:25;101088.97;;;19.37;100.00
54882;BME280;40775;51.448;4.742;2023-05-10T11:03:04;101092.59;;;19.31;100.00
54882;BME280;40775;51.448;4.742;2023-05-10T11:05:43;101096.78;;;19.55;100.00
54882;BME280;40775;51.448;4.742;2023-05-10T11:08:29;101084.53;;;19.36;100.00
54882;BME280;40775;51.448;4.742;2023-05-10T11:13:46;101101.44;;;19.33;100.00
54882;BME280;40775;51.448;4.742;2023-05-10T11:19:07;101096.97;;;19.35;100.00
54882;BME280;40775;51.448;4.742;2023-05-10T11:21:51;101095.22;;;19.34;100.00
54882;BME280;40775;51.448;4.742;2023-05-10T11:24:21;101103.19;;;19.34;100.00
54882;BME280;40775;51.448;4.742;2023-05-10T11:26:52;101102.28;;;19.35;100.00
54882;BME280;40775;51.448;4.742;2023-05-10T11:29:20;101104.97;;;19.35;100.00
54882;BME280;40775;51.448;4.742;2023-05-10T11:31:48;101109.34;;;19.39;100.00
54882;BME280;40775;51.448;4.742;2023-05-10T11:34:27;101110.91;;;19.60;100.00
54882;BME280;40775;51.448;4.742;2023-05-10T11:36:56;101100.06;;;19.77;100.00
54882;BME280;40775;51.448;4.742;2023-05-10T11:39:31;101095.75;;;19.65;100.00
54882;BME280;40775;51.448;4.742;2023-05-10T11:41:59;101094.97;;;19.57;100.00
54882;BME280;40775;51.448;4.742;2023-05-10T11:44:30;101097.66;;;19.56;100.00
54882;BME280;40775;51.448;4.742;2023-05-10T11:46:59;101096.78;;;19.54;100.00
54882;BME280;40775;51.448;4.742;2023-05-10T11:49:27;101103.78;;;19.62;100.00
54882;BME280;40775;51.448;4.742;2023-05-10T11:52:05;101101.22;;;19.55;100.00
54882;BME280;40775;51.448;4.742;2023-05-10T11:54:33;101110.09;;;19.52;100.00
54882;BME280;40775;51.448;4.742;2023-05-10T11:57:02;101102.16;;;19.48;100.00
54882;BME280;40775;51.448;4.742;2023-05-10T11:59:30;101116.38;;;19.47;100.00
54882;BME280;40775;51.448;4.742;2023-05-10T12:01:57;101114.63;;;19.45;100.00
54882;BME280;40775;51.448;4.742;2023-05-10T12:04:25;101111.09;;;19.42;100.00
54882;BME280;40775;51.448;4.742;2023-05-10T12:06:53;101119.06;;;19.45;100.00
54882;BME280;40775;51.448;4.742;2023-05-10T12:09:20;101119.06;;;19.43;100.00
54882;BME280;40775;51.448;4.742;2023-05-10T12:12:07;101115.50;;;19.43;100.00
54882;BME280;40775;51.448;4.742;2023-05-10T12:14:35;101115.50;;;19.43;100.00
54882;BME280;40775;51.448;4.742;2023-05-10T12:17:03;101116.41;;;19.43;100.00
54882;BME280;40775;51.448;4.742;2023-05-10T12:19:38;101122.59;;;19.44;100.00
54882;BME280;40775;51.448;4.742;2023-05-10T12:22:06;101132.38;;;19.43;100.00
54882;BME280;40775;51.448;4.742;2023-05-10T12:24:37;101126.13;;;19.44;100.00
54882;BME280;40775;51.448;4.742;2023-05-10T12:27:07;101120.81;;;19.44;100.00
54882;BME280;40775;51.448;4.742;2023-05-10T12:29:52;101118.16;;;19.44;100.00
54882;BME280;40775;51.448;4.742;2023-05-10T12:32:21;101120.84;;;19.46;100.00
54882;BME280;40775;51.448;4.742;2023-05-10T12:35:04;101127.94;;;19.45;100.00
54882;BME280;40775;51.448;4.742;2023-05-10T12:37:31;101127.91;;;19.47;100.00
54882;BME280;40775;51.448;4.742;2023-05-10T12:40:02;101125.22;;;19.49;100.00
54882;BME280;40775;51.448;4.742;2023-05-10T12:42:32;101131.47;;;19.48;100.00
54882;BME280;40775;51.448;4.742;2023-05-10T12:44:59;101127.91;;;19.49;100.00
54882;BME280;40775;51.448;4.742;2023-05-10T12:47:26;101129.69;;;19.48;100.00
54882;BME280;40775;51.448;4.742;2023-05-10T12:49:54;101130.56;;;19.49;100.00
54882;BME280;40775;51.448;4.742;2023-05-10T12:52:21;101135.88;;;19.49;100.00
54882;BME280;40775;51.448;4.742;2023-05-10T12:54:49;101134.09;;;19.49;100.00
54882;BME280;40775;51.448;4.742;2023-05-10T12:57:16;101137.66;;;19.50;100.00
54882;BME280;40775;51.448;4.742;2023-05-10T12:59:44;101136.78;;;19.49;100.00
54882;BME280;40775;51.448;4.742;2023-05-10T13:02:11;101135.00;;;19.50;100.00
54882;BME280;40775;51.448;4.742;2023-05-10T13:04:38;101133.22;;;19.49;100.00
54882;BME280;40775;51.448;4.742;2023-05-10T13:07:07;101136.75;;;19.51;100.00
54882;BME280;40775;51.448;4.742;2023-05-10T13:09:34;101131.41;;;19.51;100.00
54882;BME280;40775;51.448;4.742;2023-05-10T13:12:02;101139.41;;;19.51;100.00
54882;BME280;40775;51.448;4.742;2023-05-10T13:14:30;101135.84;;;19.52;100.00
54882;BME280;40775;51.448;4.742;2023-05-10T13:16:57;101136.75;;;19.51;100.00
54882;BME280;40775;51.448;4.742;2023-05-10T13:19:26;101146.50;;;19.52;100.00
54882;BME280;40775;51.448;4.742;2023-05-10T13:21:53;101135.84;;;19.52;100.00
54882;BME280;40775;51.448;4.742;2023-05-10T13:24:21;101144.72;;;19.52;100.00
54882;BME280;40775;51.448;4.742;2023-05-10T13:26:48;101150.94;;;19.53;100.00